Time;durP1;ratioP1;P1;durP2;ratioP2;P2;SDS_P1;SDS_P2;PMS_P1;PMS_P2;Temp;Humidity;BMP_temperature;BMP_pressure;BME280_temperature;BME280_humidity;BME280_pressure;Samples;Min_cycle;Max_cycle;Signal;HPM_P1;HPM_P2
2023/09/09 00:01:37;;;;;;;1999.90;999.90;;;;;;;20.33;100.00;101491.84;10539326;28;20063;-70
2023/09/09 00:06:40;;;;;;;1999.90;999.90;;;;;;;20.32;100.00;101501.63;10539544;28;20492;-70
2023/09/09 00:11:42;;;;;;;1999.90;999.90;;;;;;;20.31;100.00;101496.44;10538860;28;20048;-70
2023/09/09 00:16:45;;;;;;;1999.90;999.90;;;;;;;20.12;100.00;101495.38;10539963;28;20059;-70
2023/09/09 00:21:47;;;;;;;1999.90;999.90;;;;;;;20.03;100.00;101493.53;10538575;28;20054;-70
2023/09/09 00:26:50;;;;;;;1999.90;999.90;;;;;;;19.99;100.00;101487.66;10537972;28;20409;-70
2023/09/09 00:31:52;;;;;;;1999.90;999.90;;;;;;;20.07;100.00;101489.63;10543621;28;20075;-70
2023/09/09 00:36:55;;;;;;;1999.90;999.90;;;;;;;20.08;100.00;101490.50;10548177;28;20075;-70
2023/09/09 00:41:57;;;;;;;1999.90;999.90;;;;;;;19.89;100.00;101477.94;10547834;28;20131;-70
2023/09/09 00:47:00;;;;;;;1999.90;999.90;;;;;;;19.79;100.00;101481.41;10546614;28;20044;-70
2023/09/09 00:52:02;;;;;;;1999.90;999.90;;;;;;;19.81;100.00;101484.75;10547562;28;20110;-70
2023/09/09 00:57:05;;;;;;;1999.90;999.90;;;;;;;19.67;100.00;101482.44;10547412;28;20083;-70
2023/09/09 01:02:08;;;;;;;1999.90;999.90;;;;;;;19.55;100.00;101484.31;10545532;28;20060;-70
2023/09/09 01:07:11;;;;;;;1999.90;999.90;;;;;;;19.69;100.00;101488.44;10529004;28;20109;-70
2023/09/09 01:12:14;;;;;;;1999.90;999.90;;;;;;;19.65;100.00;101484.34;10544924;28;20448;-70
2023/09/09 01:17:17;;;;;;;1999.90;999.90;;;;;;;19.59;100.00;101491.03;10546573;28;20129;-70
2023/09/09 01:22:19;;;;;;;1999.90;999.90;;;;;;;19.71;100.00;101483.00;10545647;28;20123;-70
2023/09/09 01:27:21;;;;;;;1999.90;999.90;;;;;;;19.60;100.00;101484.75;10544294;28;20044;-70
2023/09/09 01:32:24;;;;;;;1999.90;999.90;;;;;;;19.66;100.00;101473.59;10544866;28;20101;-70
2023/09/09 01:37:27;;;;;;;1999.90;999.90;;;;;;;19.53;100.00;101474.78;10544566;28;20052;-70
2023/09/09 01:42:29;;;;;;;1999.90;999.90;;;;;;;19.57;100.00;101474.38;10545179;28;20044;-71
2023/09/09 01:47:32;;;;;;;1999.90;999.90;;;;;;;19.44;100.00;101474.56;10545301;28;20052;-70
2023/09/09 01:52:34;;;;;;;1999.90;999.90;;;;;;;19.33;100.00;101477.28;10544510;28;20408;-70
2023/09/09 01:57:37;;;;;;;1999.90;999.90;;;;;;;19.19;100.00;101481.09;10526997;28;20048;-70
2023/09/09 02:02:40;;;;;;;1999.90;999.90;;;;;;;19.15;100.00;101479.69;10544188;28;20052;-70
2023/09/09 02:07:42;;;;;;;1999.90;999.90;;;;;;;19.03;100.00;101489.50;10543339;28;20055;-70
2023/09/09 02:12:45;;;;;;;1999.90;999.90;;;;;;;19.04;100.00;101482.38;10543653;28;20054;-70
2023/09/09 02:17:48;;;;;;;1999.90;999.90;;;;;;;18.86;100.00;101484.72;10542584;28;20087;-70
2023/09/09 02:22:50;;;;;;;1999.90;999.90;;;;;;;18.83;100.00;101490.28;10544148;28;20048;-70
2023/09/09 02:27:52;;;;;;;1999.90;999.90;;;;;;;18.86;100.00;101480.28;10544722;28;20082;-71
2023/09/09 02:32:55;;;;;;;1999.90;999.90;;;;;;;18.75;100.00;101477.63;10543749;28;20067;-71
2023/09/09 02:37:57;;;;;;;1999.90;999.90;;;;;;;18.66;100.00;101476.56;10541597;28;20496;-70
2023/09/09 02:43:00;;;;;;;1999.90;999.90;;;;;;;18.66;100.00;101473.03;10543067;28;20044;-70
2023/09/09 02:48:02;;;;;;;1999.90;999.90;;;;;;;18.65;100.00;101474.88;10524328;28;20408;-70
2023/09/09 02:53:05;;;;;;;1999.90;999.90;;;;;;;18.59;100.00;101472.69;10542044;28;20044;-71
2023/09/09 02:58:10;;;;;;;1999.90;999.90;;;;;;;18.56;100.00;101472.97;10542524;28;20052;-71
2023/09/09 03:03:13;;;;;;;1999.90;999.90;;;;;;;18.47;100.00;101474.53;10541388;28;20567;-70
2023/09/09 03:08:16;;;;;;;1999.90;999.90;;;;;;;18.51;100.00;101478.63;10540953;28;20135;-70
2023/09/09 03:13:18;;;;;;;1999.90;999.90;;;;;;;18.52;100.00;101479.47;10541953;28;20051;-70
2023/09/09 03:18:20;;;;;;;1999.90;999.90;;;;;;;18.50;100.00;101474.28;10541121;28;20415;-70
2023/09/09 03:23:23;;;;;;;1999.90;999.90;;;;;;;18.54;100.00;101469.56;10541444;28;20130;-70
2023/09/09 03:28:25;;;;;;;1999.90;999.90;;;;;;;18.36;100.00;101480.69;10539542;28;20506;-70
2023/09/09 03:33:28;;;;;;;1999.90;999.90;;;;;;;18.46;100.00;101482.59;10541155;28;20071;-70
2023/09/09 03:38:30;;;;;;;1999.90;999.90;;;;;;;18.41;100.00;101482.13;10541065;28;20048;-70
2023/09/09 03:43:34;;;;;;;1999.90;999.90;;;;;;;18.38;100.00;101483.22;10540748;28;20040;-70
2023/09/09 03:48:38;;;;;;;1999.90;999.90;;;;;;;18.33;100.00;101480.09;10540746;28;20051;-70
2023/09/09 03:53:40;;;;;;;1999.90;999.90;;;;;;;18.33;100.00;101480.09;10538669;28;20127;-70
2023/09/09 03:58:43;;;;;;;1999.90;999.90;;;;;;;18.43;100.00;101477.56;10539722;28;20062;-70
2023/09/09 04:03:45;;;;;;;1999.90;999.90;;;;;;;18.43;100.00;101480.22;10539359;28;20131;-70
2023/09/09 04:08:50;;;;;;;1999.90;999.90;;;;;;;18.42;100.00;101487.31;10539479;28;20491;-70
2023/09/09 04:13:52;;;;;;;1999.90;999.90;;;;;;;18.38;100.00;101481.41;10538862;28;20101;-70
2023/09/09 04:18:54;;;;;;;1999.90;999.90;;;;;;;18.36;100.00;101480.69;10539909;28;20123;-70
2023/09/09 04:23:57;;;;;;;1999.90;999.90;;;;;;;18.35;100.00;101484.31;10539772;28;20047;-70
2023/09/09 04:29:00;;;;;;;1999.90;999.90;;;;;;;18.24;100.00;101484.34;10539131;28;20055;-70
2023/09/09 04:34:02;;;;;;;1999.90;999.90;;;;;;;18.13;100.00;101477.22;10539694;28;20048;-70
2023/09/09 04:39:04;;;;;;;1999.90;999.90;;;;;;;17.95;100.00;101484.78;10538889;28;20493;-70
2023/09/09 04:44:07;;;;;;;1999.90;999.90;;;;;;;17.98;100.00;101487.19;10537647;28;20052;-70
2023/09/09 04:49:09;;;;;;;1999.90;999.90;;;;;;;18.03;100.00;101481.56;10538737;28;20400;-70
2023/09/09 04:54:12;;;;;;;1999.90;999.90;;;;;;;17.85;100.00;101483.78;10539296;28;20043;-70
2023/09/09 04:59:14;;;;;;;1999.90;999.90;;;;;;;18.00;100.00;101493.25;10538518;28;20051;-71
2023/09/09 05:04:17;;;;;;;1999.90;999.90;;;;;;;17.87;100.00;101489.00;10538398;28;20056;-71
2023/09/09 05:09:19;;;;;;;1999.90;999.90;;;;;;;17.78;100.00;101488.72;10539023;28;20135;-71
2023/09/09 05:14:22;;;;;;;1999.90;999.90;;;;;;;17.76;100.00;101498.59;10537049;28;20527;-71
2023/09/09 05:19:24;;;;;;;1999.90;999.90;;;;;;;17.78;100.00;101498.47;10544712;28;20056;-71
2023/09/09 05:24:27;;;;;;;1999.90;999.90;;;;;;;17.97;100.00;101500.56;10546246;28;20054;-71
2023/09/09 05:29:29;;;;;;;1999.90;999.90;;;;;;;17.78;100.00;101499.31;10545472;28;20564;-71
2023/09/09 05:34:31;;;;;;;1999.90;999.90;;;;;;;17.84;100.00;101505.97;10544086;28;20048;-71
2023/09/09 05:39:34;;;;;;;1999.90;999.90;;;;;;;17.93;100.00;101512.38;10543889;28;20382;-71
2023/09/09 05:44:36;;;;;;;1999.90;999.90;;;;;;;17.98;100.00;101513.69;10545470;28;20054;-71
2023/09/09 05:49:39;;;;;;;1999.90;999.90;;;;;;;17.89;100.00;101518.88;10545337;28;20056;-71
2023/09/09 05:54:42;;;;;;;1999.90;999.90;;;;;;;17.91;100.00;101520.44;10544481;28;20079;-71
2023/09/09 05:59:44;;;;;;;1999.90;999.90;;;;;;;18.10;100.00;101524.31;10544894;28;20048;-71
2023/09/09 06:04:47;;;;;;;1999.90;999.90;;;;;;;18.37;100.00;101535.41;10543972;28;20059;-71
2023/09/09 06:09:49;;;;;;;1999.90;999.90;;;;;;;18.41;100.00;101530.72;10543856;28;20404;-71
2023/09/09 06:14:52;;;;;;;1999.90;999.90;;;;;;;18.40;100.00;101539.63;10544329;28;20058;-71
2023/09/09 06:19:56;;;;;;;1999.90;999.90;;;;;;;18.53;100.00;101532.38;10544126;28;20048;-71
2023/09/09 06:24:58;;;;;;;1999.90;999.90;;;;;;;18.68;100.00;101546.22;10543936;28;20054;-71
2023/09/09 06:30:01;;;;;;;1999.90;999.90;;;;;;;18.87;100.00;101553.56;10542036;28;20076;-71
2023/09/09 06:35:05;;;;;;;1999.90;999.90;;;;;;;18.92;100.00;101545.25;10543533;28;20071;-71
2023/09/09 06:40:08;;;;;;;1999.90;999.90;;;;;;;19.06;100.00;101560.03;10542693;28;20051;-71
2023/09/09 06:45:12;;;;;;;1999.90;999.90;;;;;;;19.22;100.00;101560.50;10541251;28;20496;-71
2023/09/09 06:50:15;;;;;;;1999.90;999.90;;;;;;;19.47;100.00;101567.28;10541705;28;20054;-71
2023/09/09 06:55:17;;;;;;;1999.90;999.90;;;;;;;19.82;100.00;101566.16;10542695;28;20091;-71
2023/09/09 07:00:20;;;;;;;1999.90;999.90;;;;;;;20.04;100.00;101567.84;10542451;28;20054;-71
2023/09/09 07:05:22;;;;;;;1999.90;999.90;;;;;;;20.34;100.00;101568.84;10541431;28;20550;-71
2023/09/09 07:10:25;;;;;;;1999.90;999.90;;;;;;;20.47;100.00;101563.25;10541456;28;20044;-71
2023/09/09 07:15:27;;;;;;;1999.90;999.90;;;;;;;20.83;100.00;101562.84;10541973;28;20044;-71
2023/09/09 07:20:30;;;;;;;1999.90;999.90;;;;;;;20.97;100.00;101573.13;10541706;28;20052;-71
2023/09/09 07:25:33;;;;;;;1999.90;999.90;;;;;;;21.42;100.00;101577.09;10539626;28;20503;-71
2023/09/09 07:30:37;;;;;;;1999.90;999.90;;;;;;;21.93;100.00;101572.44;10540706;28;20056;-71
2023/09/09 07:35:39;;;;;;;1999.90;999.90;;;;;;;22.62;100.00;101571.22;10540511;28;20555;-71
2023/09/09 07:40:41;;;;;;;1999.90;999.90;;;;;;;23.37;99.12;101571.88;10540740;28;20048;-71
2023/09/09 07:45:48;;;;;;;1999.90;999.90;;;;;;;23.87;98.25;101567.81;10539551;28;20122;-71
2023/09/09 07:50:55;;;;;;;1999.90;999.90;;;;;;;24.21;95.68;101560.78;10522871;28;20048;-71
2023/09/09 07:55:58;;;;;;;1999.90;999.90;;;;;;;24.53;92.64;101561.94;10540451;28;20047;-71
2023/09/09 08:01:06;;;;;;;1999.90;999.90;;;;;;;24.60;92.83;101568.38;10539460;28;20386;-71
2023/09/09 08:06:08;;;;;;;1999.90;999.90;;;;;;;25.23;90.32;101572.38;10540227;28;20044;-71
2023/09/09 08:11:11;;;;;;;1999.90;999.90;;;;;;;25.25;89.32;101580.25;10539456;28;20048;-71
2023/09/09 08:16:14;;;;;;;1999.90;999.90;;;;;;;25.16;89.07;101588.25;10538919;28;20048;-69
2023/09/09 08:21:16;;;;;;;1999.90;999.90;;;;;;;25.44;87.49;101579.97;10538738;28;20101;-69
2023/09/09 08:26:19;;;;;;;1999.90;999.90;;;;;;;25.94;83.11;101586.09;10539698;28;20048;-70
2023/09/09 08:31:21;;;;;;;1999.90;999.90;;;;;;;26.33;81.78;101583.53;10539588;28;20059;-70
2023/09/09 08:36:25;;;;;;;1999.90;999.90;;;;;;;26.39;80.78;101583.84;10539565;28;20043;-70
2023/09/09 08:41:52;;;;;;;1999.90;999.90;;;;;;;26.66;80.84;101601.38;10538338;28;20048;-71
2023/09/09 08:46:55;;;;;;;1999.90;999.90;;;;;;;26.81;80.59;101599.63;10538222;28;20044;-71
2023/09/09 08:52:12;;;;;;;1999.90;999.90;;;;;;;27.84;78.36;101604.81;10540484;28;20054;-71
2023/09/09 08:57:15;;;;;;;1999.90;999.90;;;;;;;27.69;77.88;101607.47;10546329;28;20047;-70
2023/09/09 09:02:18;;;;;;;1999.90;999.90;;;;;;;28.16;74.23;101609.06;10545022;28;20056;-71
2023/09/09 09:07:21;;;;;;;1999.90;999.90;;;;;;;28.15;74.48;101613.59;10546395;28;20048;-70
2023/09/09 09:12:24;;;;;;;1999.90;999.90;;;;;;;29.16;71.09;101607.63;10545678;28;20058;-71
2023/09/09 09:17:30;;;;;;;1999.90;999.90;;;;;;;28.75;72.46;101608.22;10505994;22;20148;-71
2023/09/09 09:22:33;;;;;;;1999.90;999.90;;;;;;;29.54;69.42;101602.00;10463243;28;20048;-71
2023/09/09 09:27:40;;;;;;;1999.90;999.90;;;;;;;29.03;69.32;101600.25;10462269;28;20496;-70
2023/09/09 09:32:43;;;;;;;1999.90;999.90;;;;;;;30.10;66.54;101608.47;10462195;28;20505;-71
2023/09/09 09:37:52;;;;;;;1999.90;999.90;;;;;;;31.05;64.78;101604.16;10462666;28;20128;-72
2023/09/09 09:42:55;;;;;;;1999.90;999.90;;;;;;;31.40;63.70;101606.69;10461854;28;20132;-71
2023/09/09 09:48:00;;;;;;;1999.90;999.90;;;;;;;31.59;61.42;101605.06;10462083;28;20048;-72
2023/09/09 09:53:07;;;;;;;1999.90;999.90;;;;;;;31.17;58.42;101598.97;10461962;28;20100;-71
2023/09/09 09:58:09;;;;;;;1999.90;999.90;;;;;;;32.02;59.25;101595.66;10460678;28;20128;-71
2023/09/09 10:03:14;;;;;;;1999.90;999.90;;;;;;;31.82;58.67;101601.91;10443811;28;20049;-71
2023/09/09 10:08:25;;;;;;;1999.90;999.90;;;;;;;32.29;56.83;101606.44;10459520;28;20453;-71
2023/09/09 10:13:44;;;;;;;1999.90;999.90;;;;;;;31.26;56.80;101602.31;10459345;28;20398;-71
2023/09/09 10:18:49;;;;;;;1999.90;999.90;;;;;;;32.39;56.22;101598.69;10459175;28;20057;-71
2023/09/09 10:23:52;;;;;;;1999.90;999.90;;;;;;;33.06;54.32;101587.53;10458909;28;20386;-71
2023/09/09 10:28:55;;;;;;;1999.90;999.90;;;;;;;33.07;52.72;101586.47;10459441;28;20053;-71
2023/09/09 10:34:00;;;;;;;1999.90;999.90;;;;;;;33.26;50.41;101587.44;10459770;28;20485;-72
2023/09/09 10:39:02;;;;;;;1999.90;999.90;;;;;;;32.72;53.17;101589.63;10460105;28;20057;-71
2023/09/09 10:44:04;;;;;;;1999.90;999.90;;;;;;;34.35;48.97;101587.06;10459967;28;20045;-71
2023/09/09 10:49:07;;;;;;;1999.90;999.90;;;;;;;34.18;48.42;101594.94;10459800;28;20052;-72
2023/09/09 10:54:09;;;;;;;1999.90;999.90;;;;;;;35.10;46.32;101588.53;10459627;28;20124;-72
2023/09/09 10:59:32;;;;;;;1999.90;999.90;;;;;;;35.50;46.94;101585.22;10458170;28;20049;-71
2023/09/09 11:04:40;;;;;;;1999.90;999.90;;;;;;;34.71;43.90;101586.16;10457954;28;20049;-72
2023/09/09 11:09:53;;;;;;;1999.90;999.90;;;;;;;35.24;43.35;101589.19;10457892;28;20049;-72
2023/09/09 11:15:08;;;;;;;1999.90;999.90;;;;;;;35.17;43.88;101578.38;10457125;28;20076;-72
2023/09/09 11:20:15;;;;;;;1999.90;999.90;;;;;;;35.32;45.58;101580.69;10457491;28;20056;-72
2023/09/09 11:25:18;;;;;;;1999.90;999.90;;;;;;;34.66;45.92;101575.13;10456532;28;20432;-71
2023/09/09 11:30:20;;;;;;;1999.90;999.90;;;;;;;34.21;44.53;101581.78;10458172;28;20056;-71
2023/09/09 11:35:23;;;;;;;1999.90;999.90;;;;;;;35.46;44.23;101582.13;10457952;28;20041;-71
2023/09/09 11:40:25;;;;;;;1999.90;999.90;;;;;;;34.51;44.73;101574.72;10457182;28;20482;-71
2023/09/09 11:45:32;;;;;;;1999.90;999.90;;;;;;;35.16;44.08;101576.75;10457294;28;20073;-71
2023/09/09 11:50:39;;;;;;;1999.90;999.90;;;;;;;34.17;43.85;101569.66;10439937;28;20049;-72
2023/09/09 11:55:41;;;;;;;1999.90;999.90;;;;;;;34.04;46.70;101576.09;10455376;28;20045;-72
2023/09/09 12:00:43;;;;;;;1999.90;999.90;;;;;;;33.90;46.32;101577.28;10456177;28;20531;-72
2023/09/09 12:05:46;;;;;;;1999.90;999.90;;;;;;;35.07;44.93;101578.97;10457015;28;20049;-72
2023/09/09 12:10:49;;;;;;;1999.90;999.90;;;;;;;34.68;46.43;101578.44;10456292;28;20405;-72
2023/09/09 12:15:52;;;;;;;1999.90;999.90;;;;;;;35.01;42.85;101569.00;10455287;28;20087;-70
2023/09/09 12:21:10;;;;;;;1999.90;999.90;;;;;;;34.97;45.60;101570.56;10456072;28;20405;-70
2023/09/09 12:26:19;;;;;;;1999.90;999.90;;;;;;;34.52;45.45;101570.94;10457059;28;20048;-70
2023/09/09 12:31:21;;;;;;;1999.90;999.90;;;;;;;33.93;45.32;101578.69;10464540;28;20055;-70
2023/09/09 12:36:24;;;;;;;1999.90;999.90;;;;;;;34.91;45.02;101569.56;10464948;28;20051;-71
2023/09/09 12:41:26;;;;;;;1999.90;999.90;;;;;;;35.17;44.09;101565.63;10464764;28;20048;-71
2023/09/09 12:46:29;;;;;;;1999.90;999.90;;;;;;;34.00;43.75;101566.72;10464724;28;20073;-71
2023/09/09 12:51:37;;;;;;;1999.90;999.90;;;;;;;34.45;45.58;101567.47;10463782;28;20453;-71
2023/09/09 12:56:40;;;;;;;1999.90;999.90;;;;;;;35.25;42.93;101574.53;10463142;28;20049;-71
2023/09/09 13:01:42;;;;;;;1999.90;999.90;;;;;;;34.63;43.15;101569.31;10464068;28;20056;-71
2023/09/09 13:06:45;;;;;;;1999.90;999.90;;;;;;;34.46;42.57;101575.41;10462661;28;20051;-71
2023/09/09 13:11:47;;;;;;;1999.90;999.90;;;;;;;34.82;42.08;101570.13;10462463;28;20075;-71
2023/09/09 13:16:50;;;;;;;1999.90;999.90;;;;;;;34.76;40.72;101564.56;10463132;28;20215;-71
2023/09/09 13:21:53;;;;;;;1999.90;999.90;;;;;;;35.21;41.76;101565.16;10462624;28;20489;-71
2023/09/09 13:26:55;;;;;;;1999.90;999.90;;;;;;;35.32;39.87;101559.75;10462971;28;20124;-71
2023/09/09 13:31:57;;;;;;;1999.90;999.90;;;;;;;34.91;38.79;101566.03;10462818;28;20045;-71
2023/09/09 13:37:00;;;;;;;1999.90;999.90;;;;;;;34.51;39.48;101561.13;10461493;28;20060;-71
2023/09/09 13:42:02;;;;;;;1999.90;999.90;;;;;;;34.29;40.15;101560.78;10462438;28;20124;-72
2023/09/09 13:47:05;;;;;;;1999.90;999.90;;;;;;;34.47;40.01;101544.44;10461625;28;20513;-72
2023/09/09 13:52:07;;;;;;;1999.90;999.90;;;;;;;35.88;42.11;101545.81;10462074;28;20045;-72
2023/09/09 13:57:09;;;;;;;1999.90;999.90;;;;;;;35.46;41.42;101552.19;10460713;28;20045;-70
2023/09/09 14:02:12;;;;;;;1999.90;999.90;;;;;;;34.64;40.94;101541.09;10461690;28;20095;-69
2023/09/09 14:07:14;;;;;;;1999.90;999.90;;;;;;;34.79;39.53;101536.09;10461333;28;20048;-70
2023/09/09 14:12:16;;;;;;;1999.90;999.90;;;;;;;35.66;39.63;101538.22;10460659;28;20049;-70
2023/09/09 14:17:19;;;;;;;1999.90;999.90;;;;;;;35.45;40.36;101547.78;10460258;28;20099;-70
2023/09/09 14:22:21;;;;;;;1999.90;999.90;;;;;;;34.71;41.70;101539.09;10460873;28;20044;-70
2023/09/09 14:27:24;;;;;;;1999.90;999.90;;;;;;;34.86;38.22;101527.81;10459959;28;20049;-70
2023/09/09 14:32:26;;;;;;;1999.90;999.90;;;;;;;34.01;42.68;101534.94;10460506;28;20056;-70
2023/09/09 14:37:28;;;;;;;1999.90;999.90;;;;;;;34.12;43.51;101536.91;10459170;28;20048;-71
2023/09/09 14:42:31;;;;;;;1999.90;999.90;;;;;;;33.59;44.91;101543.72;10460178;28;20053;-71
2023/09/09 14:47:33;;;;;;;1999.90;999.90;;;;;;;34.43;43.64;101535.94;10459160;28;20049;-72
2023/09/09 14:52:36;;;;;;;1999.90;999.90;;;;;;;34.71;44.02;101536.38;10458222;28;20056;-71
2023/09/09 14:57:38;;;;;;;1999.90;999.90;;;;;;;33.44;42.59;101535.94;10458342;28;20059;-72
2023/09/09 15:02:40;;;;;;;1999.90;999.90;;;;;;;33.72;44.09;101525.66;10458687;28;20492;-71
2023/09/09 15:07:43;;;;;;;1999.90;999.90;;;;;;;35.01;42.22;101532.81;10459037;28;20048;-71
2023/09/09 15:12:45;;;;;;;1999.90;999.90;;;;;;;34.05;46.53;101533.44;10458888;28;20094;-71
2023/09/09 15:17:48;;;;;;;1999.90;999.90;;;;;;;32.90;49.08;101526.50;10458223;28;20057;-71
2023/09/09 15:22:51;;;;;;;1999.90;999.90;;;;;;;33.33;46.74;101529.34;10458064;28;20056;-71
2023/09/09 15:27:53;;;;;;;1999.90;999.90;;;;;;;32.31;48.79;101532.06;10458176;28;20052;-71
2023/09/09 15:32:56;;;;;;;1999.90;999.90;;;;;;;32.59;49.66;101531.69;10456998;28;20045;-71
2023/09/09 15:38:00;;;;;;;1999.90;999.90;;;;;;;32.80;49.80;101527.03;10458051;28;20053;-71
2023/09/09 15:43:02;;;;;;;1999.90;999.90;;;;;;;33.06;49.84;101525.16;10457372;28;20481;-71
2023/09/09 15:48:05;;;;;;;1999.90;999.90;;;;;;;30.73;58.13;101535.41;10457542;28;20063;-71
2023/09/09 15:53:08;;;;;;;1999.90;999.90;;;;;;;30.24;60.17;101526.47;10457455;28;20072;-71
2023/09/09 15:58:10;;;;;;;1999.90;999.90;;;;;;;29.83;60.53;101519.22;10456687;28;20405;-71
2023/09/09 16:03:13;;;;;;;1999.90;999.90;;;;;;;29.68;62.06;101521.19;10439264;28;20063;-71
2023/09/09 16:08:15;;;;;;;1999.90;999.90;;;;;;;29.82;62.18;101526.50;10455171;28;20482;-71
2023/09/09 16:13:18;;;;;;;1999.90;999.90;;;;;;;29.20;64.29;101521.81;10456967;28;20063;-71
2023/09/09 16:18:20;;;;;;;1999.90;999.90;;;;;;;28.47;68.02;101521.84;10456355;28;20076;-71
2023/09/09 16:23:23;;;;;;;1999.90;999.90;;;;;;;28.52;68.17;101516.75;10456667;28;20053;-71
2023/09/09 16:28:25;;;;;;;1999.90;999.90;;;;;;;27.88;71.30;101517.34;10456013;28;20111;-71
2023/09/09 16:33:28;;;;;;;1999.90;999.90;;;;;;;27.36;74.21;101529.78;10455898;28;20123;-71
2023/09/09 16:38:31;;;;;;;1999.90;999.90;;;;;;;26.95;76.81;101525.53;10456450;28;20131;-71
2023/09/09 16:43:35;;;;;;;1999.90;999.90;;;;;;;26.41;80.69;101523.63;10455207;28;20045;-71
2023/09/09 16:48:38;;;;;;;1999.90;999.90;;;;;;;26.18;83.12;101528.09;10454410;28;20087;-71
2023/09/09 16:53:41;;;;;;;1999.90;999.90;;;;;;;26.35;83.20;101527.00;10456395;28;20049;-71
2023/09/09 16:58:44;;;;;;;1999.90;999.90;;;;;;;26.22;81.92;101540.13;10455461;28;20504;-71
2023/09/09 17:03:46;;;;;;;1999.90;999.90;;;;;;;26.41;81.22;101545.09;10455430;28;20095;-71
2023/09/09 17:08:49;;;;;;;1999.90;999.90;;;;;;;25.84;84.93;101538.03;10455858;28;20045;-71
2023/09/09 17:13:51;;;;;;;1999.90;999.90;;;;;;;25.44;86.47;101545.13;10458772;28;20512;-72
2023/09/09 17:18:57;;;;;;;1999.90;999.90;;;;;;;25.37;87.34;101539.59;10462862;28;20077;-71
2023/09/09 17:23:59;;;;;;;1999.90;999.90;;;;;;;25.19;88.01;101544.25;10462576;28;20409;-70
2023/09/09 17:29:01;;;;;;;1999.90;999.90;;;;;;;24.97;89.17;101541.19;10462956;28;20055;-70
2023/09/09 17:34:04;;;;;;;1999.90;999.90;;;;;;;25.10;87.76;101547.91;10461622;28;20049;-71
2023/09/09 17:39:11;;;;;;;1999.90;999.90;;;;;;;24.52;91.00;101545.06;10462047;28;20467;-71
2023/09/09 17:44:13;;;;;;;1999.90;999.90;;;;;;;24.27;92.13;101546.78;10462696;28;20055;-71
2023/09/09 17:49:16;;;;;;;1999.90;999.90;;;;;;;24.21;93.39;101556.31;10461034;28;20040;-71
2023/09/09 17:54:19;;;;;;;1999.90;999.90;;;;;;;24.13;92.74;101566.13;10460912;28;20049;-71
2023/09/09 17:59:22;;;;;;;1999.90;999.90;;;;;;;23.98;93.37;101571.22;10461121;28;20413;-71
2023/09/09 18:04:24;;;;;;;1999.90;999.90;;;;;;;23.83;94.63;101563.75;10461044;28;20053;-70
2023/09/09 18:09:26;;;;;;;1999.90;999.90;;;;;;;23.64;95.92;101567.44;10461566;28;20049;-70
2023/09/09 18:14:29;;;;;;;1999.90;999.90;;;;;;;23.54;95.06;101577.38;10460805;28;20500;-70
2023/09/09 18:19:31;;;;;;;1999.90;999.90;;;;;;;23.33;97.83;101569.66;10460393;28;20063;-71
2023/09/09 18:24:34;;;;;;;1999.90;999.90;;;;;;;23.14;98.47;101578.69;10460912;28;20045;-70
2023/09/09 18:29:36;;;;;;;1999.90;999.90;;;;;;;22.97;99.16;101578.47;10460808;28;20045;-70
2023/09/09 18:34:38;;;;;;;1999.90;999.90;;;;;;;22.81;100.00;101580.94;10459924;28;20045;-70
2023/09/09 18:39:41;;;;;;;1999.90;999.90;;;;;;;22.71;100.00;101581.03;10460482;28;20056;-71
2023/09/09 18:44:43;;;;;;;1999.90;999.90;;;;;;;22.54;100.00;101590.63;10460151;28;20074;-70
2023/09/09 18:49:45;;;;;;;1999.90;999.90;;;;;;;22.56;99.92;101598.50;10460023;28;20060;-70
2023/09/09 18:54:48;;;;;;;1999.90;999.90;;;;;;;22.54;99.29;101598.63;10459741;28;20049;-70
2023/09/09 18:59:50;;;;;;;1999.90;999.90;;;;;;;22.36;100.00;101608.41;10459625;28;20052;-70
2023/09/09 19:04:52;;;;;;;1999.90;999.90;;;;;;;22.37;100.00;101602.09;10458649;28;20159;-70
2023/09/09 19:09:55;;;;;;;1999.90;999.90;;;;;;;22.27;100.00;101618.94;10459178;28;20128;-70
2023/09/09 19:14:58;;;;;;;1999.90;999.90;;;;;;;22.36;100.00;101614.59;10457155;28;20056;-70
2023/09/09 19:20:01;;;;;;;1999.90;999.90;;;;;;;22.10;100.00;101616.19;10456935;28;20057;-70
2023/09/09 19:25:05;;;;;;;1999.90;999.90;;;;;;;21.82;100.00;101616.06;10458664;28;20048;-70
2023/09/09 19:30:07;;;;;;;1999.90;999.90;;;;;;;21.81;100.00;101625.06;10457248;28;20053;-70
2023/09/09 19:35:10;;;;;;;1999.90;999.90;;;;;;;21.71;100.00;101619.75;10456587;28;20044;-70
2023/09/09 19:40:12;;;;;;;1999.90;999.90;;;;;;;21.63;100.00;101628.41;10457483;28;20516;-70
2023/09/09 19:45:15;;;;;;;1999.90;999.90;;;;;;;21.55;100.00;101628.28;10457764;28;20048;-70
2023/09/09 19:50:17;;;;;;;1999.90;999.90;;;;;;;21.42;100.00;101636.53;10457072;28;20453;-70
2023/09/09 19:55:19;;;;;;;1999.90;999.90;;;;;;;21.40;100.00;101640.28;10457558;28;20076;-70
2023/09/09 20:00:22;;;;;;;1999.90;999.90;;;;;;;21.33;100.00;101638.22;10457259;28;20053;-70
2023/09/09 20:05:24;;;;;;;1999.90;999.90;;;;;;;21.26;100.00;101644.22;10457182;28;20077;-70
2023/09/09 20:10:27;;;;;;;1999.90;999.90;;;;;;;21.10;100.00;101647.41;10457118;28;20055;-70
2023/09/09 20:15:29;;;;;;;1999.90;999.90;;;;;;;21.32;100.00;101649.00;10457107;28;20099;-70
2023/09/09 20:20:32;;;;;;;1999.90;999.90;;;;;;;21.09;100.00;101653.69;10456117;28;20061;-70
2023/09/09 20:25:34;;;;;;;1999.90;999.90;;;;;;;20.88;100.00;101659.09;10456685;28;20055;-70
2023/09/09 20:30:36;;;;;;;1999.90;999.90;;;;;;;20.84;100.00;101658.50;10456704;28;20128;-70
2023/09/09 20:35:39;;;;;;;1999.90;999.90;;;;;;;20.75;100.00;101662.00;10454799;28;20481;-70
2023/09/09 20:40:42;;;;;;;1999.90;999.90;;;;;;;20.65;100.00;101658.47;10456429;28;20053;-70
2023/09/09 20:45:45;;;;;;;1999.90;999.90;;;;;;;20.77;100.00;101647.56;10455663;28;20448;-70
2023/09/09 20:50:49;;;;;;;1999.90;999.90;;;;;;;20.58;100.00;101653.63;10462826;28;20490;-70
2023/09/09 20:55:51;;;;;;;1999.90;999.90;;;;;;;20.55;100.00;101647.72;10464400;28;20052;-70
2023/09/09 21:01:03;;;;;;;1999.90;999.90;;;;;;;20.47;100.00;101644.88;10464226;28;20055;-70
2023/09/09 21:06:05;;;;;;;1999.90;999.90;;;;;;;20.44;100.00;101648.63;10462833;28;20056;-70
2023/09/09 21:11:07;;;;;;;1999.90;999.90;;;;;;;20.42;100.00;101648.78;10463937;28;20081;-70
2023/09/09 21:16:10;;;;;;;1999.90;999.90;;;;;;;20.24;100.00;101653.03;10463023;28;20053;-70
2023/09/09 21:21:12;;;;;;;1999.90;999.90;;;;;;;20.23;100.00;101656.66;10462873;28;20057;-70
2023/09/09 21:26:19;;;;;;;1999.90;999.90;;;;;;;20.30;100.00;101654.31;10462605;28;20405;-70
2023/09/09 21:31:22;;;;;;;1999.90;999.90;;;;;;;20.27;100.00;101652.75;10497552;22;20047;-69
2023/09/09 21:36:24;;;;;;;1999.90;999.90;;;;;;;20.27;100.00;101654.56;10545911;28;20446;-69
2023/09/09 21:41:27;;;;;;;1999.90;999.90;;;;;;;20.27;100.00;101655.41;10546308;28;20048;-69
2023/09/09 21:46:29;;;;;;;1999.90;999.90;;;;;;;20.14;100.00;101660.94;10546042;28;20044;-69
2023/09/09 21:51:32;;;;;;;1999.90;999.90;;;;;;;20.13;100.00;101661.06;10545326;28;20052;-69